createdAt,value
2022-12-09T00:00:12.955Z,8.48
2022-12-09T00:02:40.278Z,8.73
2022-12-09T00:05:07.458Z,7.95
2022-12-09T00:07:37.450Z,8.02
2022-12-09T00:10:05.654Z,8.43
2022-12-09T00:12:39.734Z,8.20
2022-12-09T00:15:07.206Z,8.60
2022-12-09T00:17:34.359Z,8.23
2022-12-09T00:20:01.603Z,8.57
2022-12-09T00:22:28.881Z,8.30
2022-12-09T00:24:55.919Z,7.80
2022-12-09T00:30:10.185Z,6.97
2022-12-09T00:32:37.366Z,6.30
2022-12-09T00:35:04.823Z,8.07
2022-12-09T00:37:31.939Z,7.20
2022-12-09T00:39:58.849Z,7.63
2022-12-09T00:44:58.218Z,9.23
2022-12-09T00:47:25.233Z,9.32
2022-12-09T00:49:52.167Z,7.50
2022-12-09T00:52:19.656Z,7.45
2022-12-09T00:54:46.595Z,7.70
2022-12-09T00:57:13.296Z,8.18
2022-12-09T00:59:40.167Z,8.10
2022-12-09T01:02:07.063Z,7.65
2022-12-09T01:04:33.965Z,9.35
2022-12-09T01:07:01.013Z,9.35
2022-12-09T01:09:28.077Z,7.63
2022-12-09T01:11:54.868Z,7.35
2022-12-09T01:14:23.003Z,8.93
2022-12-09T01:16:50.039Z,8.15
2022-12-09T01:19:16.896Z,9.05
2022-12-09T01:21:43.728Z,7.85
2022-12-09T01:24:11.574Z,8.50
2022-12-09T01:26:38.640Z,8.73
2022-12-09T01:29:05.771Z,8.18
2022-12-09T01:31:32.612Z,7.40
2022-12-09T01:33:59.977Z,8.00
2022-12-09T01:36:29.471Z,8.13
2022-12-09T01:38:58.404Z,8.13
2022-12-09T01:41:25.690Z,8.82
2022-12-09T01:44:16.979Z,7.75
2022-12-09T01:46:44.454Z,8.73
2022-12-09T01:49:17.740Z,8.82
2022-12-09T01:51:46.957Z,8.23
2022-12-09T01:54:17.679Z,9.27
2022-12-09T01:56:44.385Z,7.85
2022-12-09T02:01:51.920Z,8.38
2022-12-09T02:04:18.902Z,8.00
2022-12-09T02:06:45.925Z,6.72
2022-12-09T02:12:12.406Z,8.38
2022-12-09T02:17:44.603Z,8.23
2022-12-09T02:20:36.677Z,7.90
2022-12-09T02:23:09.474Z,7.82
2022-12-09T02:25:45.917Z,8.52
2022-12-09T02:28:43.197Z,9.10
2022-12-09T02:31:27.335Z,9.38
2022-12-09T02:34:21.232Z,9.05
2022-12-09T02:36:55.828Z,9.45
2022-12-09T02:39:45.782Z,7.78
2022-12-09T02:42:18.692Z,9.17
2022-12-09T02:55:57.151Z,8.95
2022-12-09T02:58:24.199Z,9.77
2022-12-09T03:00:52.297Z,9.52
2022-12-09T03:03:19.559Z,8.98
2022-12-09T03:17:34.062Z,8.80
2022-12-09T03:20:06.724Z,8.45
2022-12-09T03:22:35.600Z,8.85
2022-12-09T03:25:10.951Z,8.23
2022-12-09T03:27:40.745Z,8.32
2022-12-09T03:30:10.064Z,8.30
2022-12-09T03:41:22.523Z,8.32
2022-12-09T03:43:53.680Z,7.93
2022-12-09T03:46:22.409Z,8.35
2022-12-09T03:48:49.416Z,8.65
2022-12-09T03:51:23.852Z,7.72
2022-12-09T03:53:51.573Z,7.85
2022-12-09T03:56:23.252Z,7.80
2022-12-09T03:58:52.979Z,8.45
2022-12-09T04:01:21.480Z,9.57
2022-12-09T04:03:49.992Z,9.13
2022-12-09T04:06:17.264Z,11.07
2022-12-09T04:08:50.376Z,10.23
2022-12-09T04:11:17.250Z,9.60
2022-12-09T04:13:44.138Z,8.40
2022-12-09T04:16:10.998Z,9.50
2022-12-09T04:18:37.694Z,7.55
2022-12-09T04:21:09.200Z,8.27
2022-12-09T04:37:03.083Z,8.55
2022-12-09T04:39:30.794Z,9.43
2022-12-09T04:41:57.756Z,10.05
2022-12-09T04:47:15.181Z,9.13
2022-12-09T04:49:42.267Z,8.75
2022-12-09T04:52:09.360Z,8.63
2022-12-09T04:54:36.685Z,9.00
2022-12-09T04:57:03.888Z,9.10
2022-12-09T04:59:38.236Z,9.37
2022-12-09T05:02:05.184Z,9.70
2022-12-09T05:04:32.162Z,10.20
2022-12-09T05:06:59.412Z,10.98
2022-12-09T05:09:26.498Z,10.80
2022-12-09T05:11:54.348Z,10.32
2022-12-09T05:17:03.811Z,11.85
2022-12-09T05:19:31.077Z,10.77
2022-12-09T05:21:58.142Z,10.95
2022-12-09T05:24:24.987Z,9.82
2022-12-09T05:26:51.934Z,12.50
2022-12-09T05:29:35.252Z,11.57
2022-12-09T05:32:02.263Z,11.63
2022-12-09T05:34:40.343Z,11.65
2022-12-09T05:37:07.221Z,12.07
2022-12-09T05:39:34.425Z,13.25
2022-12-09T05:42:01.344Z,11.15
2022-12-09T05:44:28.516Z,12.52
2022-12-09T05:46:57.597Z,11.77
2022-12-09T05:49:25.308Z,11.32
2022-12-09T05:51:52.680Z,10.82
2022-12-09T05:54:20.123Z,10.82
2022-12-09T05:56:49.036Z,10.52
2022-12-09T05:59:24.311Z,9.70
2022-12-09T06:01:51.708Z,11.02
2022-12-09T06:04:18.710Z,10.10
2022-12-09T06:06:47.017Z,12.13
2022-12-09T06:09:14.075Z,12.32
2022-12-09T06:11:41.346Z,13.57
2022-12-09T06:16:53.164Z,13.02
2022-12-09T06:19:21.326Z,11.18
2022-12-09T06:21:48.497Z,10.85
2022-12-09T06:24:16.072Z,9.60
2022-12-09T06:26:44.310Z,10.80
2022-12-09T06:40:01.410Z,12.10
2022-12-09T06:42:28.939Z,9.45
2022-12-09T06:44:58.802Z,13.00
2022-12-09T06:50:12.689Z,11.20
2022-12-09T06:52:40.217Z,11.17
2022-12-09T06:55:08.947Z,11.40
2022-12-09T06:57:36.352Z,11.18
2022-12-09T07:00:05.608Z,11.88
2022-12-09T07:02:36.836Z,12.98
2022-12-09T07:07:38.144Z,12.90
2022-12-09T07:10:07.691Z,12.57
2022-12-09T07:12:36.554Z,13.27
2022-12-09T07:15:04.169Z,14.05
2022-12-09T07:17:31.846Z,12.07
2022-12-09T07:20:08.216Z,12.60
2022-12-09T07:22:37.292Z,13.25
2022-12-09T07:25:06.273Z,13.73
2022-12-09T07:27:33.876Z,12.13
2022-12-09T07:30:01.273Z,14.13
2022-12-09T07:32:28.411Z,13.13
2022-12-09T07:35:05.619Z,12.80
2022-12-09T07:37:34.289Z,11.40
2022-12-09T07:40:03.248Z,12.32
2022-12-09T07:45:12.481Z,12.95
2022-12-09T07:47:41.584Z,13.80
2022-12-09T07:50:10.495Z,12.70
2022-12-09T07:52:37.789Z,12.43
2022-12-09T07:55:07.807Z,12.18
2022-12-09T08:02:50.425Z,13.80
2022-12-09T08:05:19.165Z,12.05
2022-12-09T08:13:19.427Z,11.63
2022-12-09T08:15:46.477Z,10.95
2022-12-09T08:18:15.996Z,11.60
2022-12-09T08:20:45.284Z,11.40
2022-12-09T08:23:15.827Z,11.05
2022-12-09T08:37:17.592Z,10.35
2022-12-09T08:39:44.899Z,10.80
2022-12-09T08:42:12.176Z,10.27
2022-12-09T08:44:40.831Z,10.60
2022-12-09T08:47:08.374Z,11.30
2022-12-09T09:00:34.449Z,10.48
2022-12-09T09:03:01.958Z,10.13
2022-12-09T09:05:32.382Z,10.88
2022-12-09T09:08:00.973Z,10.55
2022-12-09T09:19:19.529Z,10.30
2022-12-09T09:21:49.891Z,11.55
2022-12-09T09:24:19.863Z,11.48
2022-12-09T09:26:50.083Z,11.50
2022-12-09T09:29:20.674Z,11.38
2022-12-09T09:31:56.321Z,10.60
2022-12-09T09:45:21.507Z,11.38
2022-12-09T09:48:02.915Z,11.73
2022-12-09T09:50:34.656Z,10.57
2022-12-09T09:53:20.195Z,9.63
2022-12-09T09:55:51.146Z,10.90
2022-12-09T10:07:20.143Z,10.32
2022-12-09T10:09:57.664Z,11.77
2022-12-09T10:12:24.871Z,10.88
2022-12-09T10:14:59.405Z,9.73
2022-12-09T10:17:35.320Z,9.82
2022-12-09T10:20:08.386Z,11.52
2022-12-09T10:22:43.988Z,11.90
2022-12-09T10:25:24.851Z,11.57
2022-12-09T10:28:14.265Z,11.07
2022-12-09T10:30:44.510Z,12.65
2022-12-09T10:33:15.949Z,12.40
2022-12-09T10:35:43.258Z,12.65
2022-12-09T10:38:18.370Z,14.80
2022-12-09T10:40:48.135Z,13.40
2022-12-09T10:43:38.945Z,14.88
2022-12-09T10:48:56.388Z,14.73
2022-12-09T10:51:30.053Z,14.88
2022-12-09T10:54:01.841Z,14.02
2022-12-09T10:59:30.006Z,14.55
2022-12-09T11:01:56.949Z,14.65
2022-12-09T11:04:45.109Z,15.10
2022-12-09T11:07:11.957Z,15.15
2022-12-09T11:09:40.618Z,13.63
2022-12-09T11:12:34.788Z,13.10
2022-12-09T11:15:25.522Z,13.63
2022-12-09T11:17:58.932Z,13.43
2022-12-09T11:20:29.373Z,14.50
2022-12-09T11:23:16.020Z,15.02
2022-12-09T11:26:00.440Z,17.77
2022-12-09T11:28:32.837Z,14.80
2022-12-09T11:33:50.129Z,14.95
2022-12-09T11:36:30.762Z,15.73
2022-12-09T11:39:36.938Z,14.35
2022-12-09T11:42:20.636Z,14.40
2022-12-09T11:44:59.495Z,14.80
2022-12-09T11:50:31.418Z,14.70
2022-12-09T11:53:11.327Z,15.18
2022-12-09T11:55:44.144Z,13.85
2022-12-09T11:58:27.964Z,13.63
2022-12-09T12:01:01.684Z,13.23
2022-12-09T12:03:37.389Z,13.95
2022-12-09T12:06:07.589Z,13.88
2022-12-09T12:08:40.681Z,14.23
2022-12-09T12:11:17.376Z,12.05
2022-12-09T12:13:49.418Z,10.43
2022-12-09T12:16:45.956Z,10.77
2022-12-09T12:19:12.500Z,10.13
2022-12-09T12:21:49.728Z,10.18
2022-12-09T12:24:27.064Z,11.63
2022-12-09T12:26:59.679Z,10.23
2022-12-09T12:29:54.475Z,9.25
2022-12-09T12:33:17.948Z,10.27
2022-12-09T12:36:01.531Z,10.30
2022-12-09T12:38:54.838Z,9.85
2022-12-09T12:41:21.988Z,10.00
2022-12-09T12:44:26.075Z,10.32
2022-12-09T12:47:01.819Z,9.13
2022-12-09T12:49:55.305Z,12.05
2022-12-09T12:52:55.566Z,11.18
2022-12-09T12:56:00.680Z,11.15
2022-12-09T12:58:29.840Z,10.43
2022-12-09T13:01:05.542Z,9.75
2022-12-09T13:03:42.685Z,10.90
2022-12-09T13:06:14.734Z,11.25
2022-12-09T13:09:02.813Z,11.77
2022-12-09T13:11:32.279Z,10.05
2022-12-09T13:14:09.953Z,10.13
2022-12-09T13:16:40.242Z,11.85
2022-12-09T13:19:08.270Z,11.57
2022-12-09T13:21:35.115Z,10.25
2022-12-09T13:24:27.905Z,10.77
2022-12-09T13:27:19.413Z,10.48
2022-12-09T13:29:54.840Z,10.80
2022-12-09T13:32:39.900Z,10.82
2022-12-09T13:35:33.417Z,9.57
2022-12-09T13:38:01.132Z,11.57
2022-12-09T13:40:35.816Z,10.70
2022-12-09T13:43:12.989Z,9.63
2022-12-09T13:45:42.907Z,11.63
2022-12-09T13:48:16.953Z,10.00
2022-12-09T13:51:00.268Z,12.20
2022-12-09T13:53:35.239Z,11.38
2022-12-09T13:56:08.721Z,10.85
2022-12-09T13:58:41.753Z,11.90
2022-12-09T14:01:20.602Z,10.90
2022-12-09T14:04:10.264Z,10.57
2022-12-09T14:20:52.691Z,10.65
2022-12-09T14:23:19.537Z,10.10
2022-12-09T14:29:04.240Z,10.77
2022-12-09T14:31:47.990Z,10.60
2022-12-09T14:34:28.330Z,11.57
2022-12-09T14:48:11.175Z,12.85
2022-12-09T14:50:38.782Z,12.45
2022-12-09T14:53:10.991Z,11.63
2022-12-09T14:55:40.702Z,11.23
2022-12-09T15:00:41.748Z,11.02
2022-12-09T15:03:45.279Z,10.40
2022-12-09T15:06:30.737Z,11.07
2022-12-09T15:08:59.813Z,10.38
2022-12-09T15:11:31.254Z,10.20
2022-12-09T15:14:20.100Z,9.38
2022-12-09T15:16:50.463Z,10.05
2022-12-09T15:19:51.048Z,11.35
2022-12-09T15:22:06.754Z,14.68
2022-12-09T15:24:49.249Z,16.25
2022-12-09T15:27:23.001Z,17.40
2022-12-09T15:29:50.039Z,15.38
2022-12-09T15:32:26.400Z,16.15
2022-12-09T15:34:54.358Z,18.85
2022-12-09T15:37:27.513Z,17.45
2022-12-09T15:40:03.581Z,18.88
2022-12-09T15:42:32.378Z,19.13
2022-12-09T15:50:57.000Z,17.83
2022-12-09T15:53:33.511Z,17.50
2022-12-09T15:56:15.499Z,18.90
2022-12-09T15:58:48.208Z,18.58
2022-12-09T16:01:22.617Z,19.20
2022-12-09T16:03:51.338Z,17.70
2022-12-09T16:06:21.526Z,17.90
2022-12-09T16:11:44.328Z,18.70
2022-12-09T16:14:12.010Z,19.10
2022-12-09T16:16:49.466Z,19.10
2022-12-09T16:19:31.071Z,21.13
2022-12-09T16:22:25.812Z,18.40
2022-12-09T16:25:22.053Z,20.35
2022-12-09T16:27:51.888Z,18.60
2022-12-09T16:30:21.563Z,22.37
2022-12-09T16:44:42.809Z,23.67
2022-12-09T16:47:16.192Z,22.88
2022-12-09T16:49:46.133Z,23.08
2022-12-09T16:52:23.383Z,22.42
2022-12-09T16:54:50.702Z,25.02
2022-12-09T16:57:21.393Z,24.80
2022-12-09T16:59:48.054Z,23.33
2022-12-09T17:02:40.235Z,23.35
2022-12-09T17:05:07.762Z,23.42
2022-12-09T17:07:34.637Z,23.90
2022-12-09T17:10:01.301Z,22.80
2022-12-09T17:12:28.050Z,23.90
2022-12-09T17:17:36.266Z,25.00
2022-12-09T17:20:02.974Z,24.85
2022-12-09T17:22:29.713Z,26.40
2022-12-09T17:24:56.380Z,24.55
2022-12-09T17:27:23.194Z,24.55
2022-12-09T17:35:27.155Z,24.13
2022-12-09T17:37:54.012Z,24.30
2022-12-09T17:40:20.641Z,24.52
2022-12-09T17:42:47.227Z,27.40
2022-12-09T17:45:13.868Z,24.25
2022-12-09T17:50:23.831Z,28.55
2022-12-09T17:52:50.582Z,25.67
2022-12-09T17:55:17.363Z,28.33
2022-12-09T17:57:44.123Z,25.65
2022-12-09T18:00:11.783Z,26.67
2022-12-09T18:10:45.206Z,27.65
2022-12-09T18:13:11.867Z,28.00
2022-12-09T18:15:38.535Z,27.75
2022-12-09T18:18:05.321Z,27.23
2022-12-09T18:23:15.979Z,27.30
2022-12-09T18:25:42.728Z,25.90
2022-12-09T18:28:09.394Z,26.65
2022-12-09T18:30:38.778Z,27.80
2022-12-09T18:33:05.659Z,28.25
2022-12-09T18:38:12.941Z,28.65
2022-12-09T18:41:00.604Z,29.38
2022-12-09T18:43:34.496Z,30.20
2022-12-09T18:46:05.857Z,29.52
2022-12-09T18:48:32.840Z,30.48
2022-12-09T18:50:59.473Z,29.02
2022-12-09T18:56:08.735Z,30.65
2022-12-09T18:59:04.727Z,29.77
2022-12-09T19:01:25.916Z,31.50
2022-12-09T19:03:54.262Z,29.42
2022-12-09T19:06:22.401Z,29.05
2022-12-09T19:08:54.074Z,31.88
2022-12-09T19:14:11.198Z,29.97
2022-12-09T19:16:38.175Z,28.80
2022-12-09T19:19:09.408Z,29.60
2022-12-09T19:21:37.441Z,31.48
2022-12-09T19:24:04.447Z,29.80
2022-12-09T19:26:33.331Z,31.42
2022-12-09T19:29:02.849Z,30.63
2022-12-09T19:31:38.236Z,32.92
2022-12-09T19:34:08.011Z,33.53
2022-12-09T19:36:35.029Z,32.53
2022-12-09T19:39:03.133Z,35.65
2022-12-09T19:41:29.737Z,32.95
2022-12-09T19:43:57.607Z,29.85
2022-12-09T19:46:26.444Z,33.50
2022-12-09T19:48:53.741Z,33.78
2022-12-09T19:51:20.997Z,32.67
2022-12-09T19:53:48.252Z,34.20
2022-12-09T19:56:20.508Z,32.35
2022-12-09T19:58:47.655Z,32.55
2022-12-09T20:01:19.281Z,32.20
2022-12-09T20:03:48.446Z,32.50
2022-12-09T20:06:20.127Z,34.50
2022-12-09T20:08:47.532Z,34.30
2022-12-09T20:11:21.631Z,35.38
2022-12-09T20:13:49.025Z,31.85
2022-12-09T20:16:19.119Z,32.15
2022-12-09T20:18:48.381Z,33.22
2022-12-09T20:21:17.156Z,35.20
2022-12-09T20:23:44.382Z,36.30
2022-12-09T20:28:56.170Z,35.95
2022-12-09T20:31:25.528Z,35.83
2022-12-09T20:33:56.811Z,35.67
2022-12-09T20:36:25.297Z,35.45
2022-12-09T20:38:54.604Z,33.03
2022-12-09T20:41:24.085Z,33.72
2022-12-09T20:43:58.984Z,36.05
2022-12-09T20:46:28.643Z,35.15
2022-12-09T20:48:56.005Z,37.10
2022-12-09T20:51:25.743Z,31.15
2022-12-09T20:53:53.233Z,35.28
2022-12-09T20:56:21.379Z,35.10
2022-12-09T20:58:49.502Z,36.40
2022-12-09T21:01:23.716Z,35.63
2022-12-09T21:03:51.538Z,33.95
2022-12-09T21:06:20.571Z,34.15
2022-12-09T21:08:47.320Z,32.83
2022-12-09T21:13:50.184Z,29.27
2022-12-09T21:16:23.282Z,29.73
2022-12-09T21:18:51.659Z,29.38
2022-12-09T21:21:19.493Z,27.60
2022-12-09T21:23:47.978Z,29.70
2022-12-09T21:28:49.975Z,28.27
2022-12-09T21:31:22.967Z,26.50
2022-12-09T21:33:51.360Z,25.52
2022-12-09T21:36:21.370Z,26.40
2022-12-09T21:38:48.155Z,28.17
2022-12-09T21:41:17.390Z,24.83
2022-12-09T21:43:44.966Z,26.55
2022-12-09T21:46:18.947Z,26.17
2022-12-09T21:48:51.814Z,25.50
2022-12-09T21:51:21.092Z,26.33
2022-12-09T21:53:48.609Z,24.85
2022-12-09T21:56:18.446Z,28.52
2022-12-09T22:01:35.757Z,29.42
2022-12-09T22:04:05.131Z,29.48
2022-12-09T22:06:31.914Z,28.52
2022-12-09T22:09:00.011Z,30.63
2022-12-09T22:11:29.052Z,30.33
2022-12-09T22:16:31.864Z,31.60
2022-12-09T22:19:00.462Z,30.45
2022-12-09T22:21:30.632Z,33.17
2022-12-09T22:24:01.009Z,35.80
2022-12-09T22:26:28.427Z,36.83
2022-12-09T22:34:26.830Z,37.90
2022-12-09T22:36:55.222Z,37.30
2022-12-09T22:39:22.910Z,36.95
2022-12-09T22:41:52.829Z,35.83
2022-12-09T22:44:20.986Z,36.75
2022-12-09T22:46:54.160Z,35.50
2022-12-09T22:49:21.922Z,36.10
2022-12-09T22:51:50.652Z,36.22
2022-12-09T22:54:18.027Z,39.65
2022-12-09T22:56:44.863Z,36.95
2022-12-09T22:59:13.554Z,38.67
2022-12-09T23:04:18.002Z,38.33
2022-12-09T23:06:45.760Z,37.08
2022-12-09T23:09:21.337Z,36.13
2022-12-09T23:11:48.684Z,37.50
2022-12-09T23:14:15.738Z,37.75
2022-12-09T23:16:51.396Z,37.25
2022-12-09T23:19:18.153Z,38.80
2022-12-09T23:21:44.829Z,35.25
2022-12-09T23:24:22.618Z,35.53
2022-12-09T23:26:51.675Z,35.50
2022-12-09T23:29:18.579Z,36.67
2022-12-09T23:31:45.380Z,37.10
2022-12-09T23:34:13.478Z,40.75
2022-12-09T23:36:42.253Z,38.17
2022-12-09T23:39:12.279Z,36.20
2022-12-09T23:41:39.986Z,34.55
2022-12-09T23:44:18.044Z,36.58
2022-12-09T23:46:45.290Z,31.85
2022-12-09T23:49:12.103Z,34.92
2022-12-09T23:51:43.291Z,39.67
2022-12-09T23:54:11.434Z,38.40
2022-12-09T23:56:40.281Z,35.58
2022-12-09T23:59:08.884Z,38.20
